sensor_id;sensor_type;location;lat;lon;timestamp;temperature;humidity
30405;DHT22;62931;53.128;8.224;2022-10-16T15:55:00;15.50;99.90
30405;DHT22;62931;53.128;8.224;2022-10-16T15:57:28;15.40;99.90
30405;DHT22;62931;53.128;8.224;2022-10-16T15:59:54;15.30;99.90
30405;DHT22;62931;53.128;8.224;2022-10-16T16:02:20;15.30;99.90
30405;DHT22;62931;53.128;8.224;2022-10-16T16:04:45;15.30;99.90
30405;DHT22;62931;53.128;8.224;2022-10-16T16:07:11;15.40;99.90
30405;DHT22;62931;53.128;8.224;2022-10-16T16:09:37;15.30;99.90
30405;DHT22;62931;53.128;8.224;2022-10-16T16:12:03;15.20;99.90
30405;DHT22;62931;53.128;8.224;2022-10-16T16:14:29;15.00;99.90
30405;DHT22;62931;53.128;8.224;2022-10-16T16:16:55;14.90;99.90
30405;DHT22;62931;53.128;8.224;2022-10-16T16:19:21;15.00;99.90
30405;DHT22;62931;53.128;8.224;2022-10-16T16:21:47;15.00;99.90
30405;DHT22;62931;53.128;8.224;2022-10-16T16:24:13;15.00;99.90
30405;DHT22;62931;53.128;8.224;2022-10-16T16:26:38;14.90;99.90
30405;DHT22;62931;53.128;8.224;2022-10-16T16:29:12;14.70;99.90
30405;DHT22;62931;53.128;8.224;2022-10-16T16:31:39;14.50;99.90
30405;DHT22;62931;53.128;8.224;2022-10-16T16:34:04;14.40;99.90
30405;DHT22;62931;53.128;8.224;2022-10-16T16:36:30;14.30;99.90
30405;DHT22;62931;53.128;8.224;2022-10-16T16:38:56;14.20;99.90
30405;DHT22;62931;53.128;8.224;2022-10-16T16:41:25;14.00;99.90
30405;DHT22;62931;53.128;8.224;2022-10-16T16:43:51;14.20;99.90
30405;DHT22;62931;53.128;8.224;2022-10-16T16:46:17;14.30;99.90
30405;DHT22;62931;53.128;8.224;2022-10-16T16:48:44;14.20;99.90
30405;DHT22;62931;53.128;8.224;2022-10-16T16:51:14;14.00;99.90
30405;DHT22;62931;53.128;8.224;2022-10-16T16:53:42;13.70;99.90
30405;DHT22;62931;53.128;8.224;2022-10-16T16:56:08;13.50;99.90
30405;DHT22;62931;53.128;8.224;2022-10-16T16:58:34;13.50;99.90
30405;DHT22;62931;53.128;8.224;2022-10-16T17:01:00;13.60;99.90
30405;DHT22;62931;53.128;8.224;2022-10-16T17:03:32;13.60;99.90
30405;DHT22;62931;53.128;8.224;2022-10-16T17:06:08;13.70;99.90
30405;DHT22;62931;53.128;8.224;2022-10-16T17:08:34;13.70;99.90
30405;DHT22;62931;53.128;8.224;2022-10-16T17:11:00;13.50;99.90
30405;DHT22;62931;53.128;8.224;2022-10-16T17:13:29;13.30;99.90
30405;DHT22;62931;53.128;8.224;2022-10-16T17:15:55;13.20;99.90
30405;DHT22;62931;53.128;8.224;2022-10-16T17:18:22;13.10;99.90
30405;DHT22;62931;53.128;8.224;2022-10-16T17:20:48;12.90;99.90
30405;DHT22;62931;53.128;8.224;2022-10-16T17:23:15;12.90;99.90
30405;DHT22;62931;53.128;8.224;2022-10-16T17:25:41;12.80;99.90
30405;DHT22;62931;53.128;8.224;2022-10-16T17:28:09;12.70;99.90
30405;DHT22;62931;53.128;8.224;2022-10-16T17:30:37;12.70;99.90
30405;DHT22;62931;53.128;8.224;2022-10-16T17:33:03;12.60;99.90
30405;DHT22;62931;53.128;8.224;2022-10-16T17:35:35;12.60;99.90
30405;DHT22;62931;53.128;8.224;2022-10-16T17:38:01;12.50;99.90
30405;DHT22;62931;53.128;8.224;2022-10-16T17:40:26;12.40;99.90
30405;DHT22;62931;53.128;8.224;2022-10-16T17:42:52;12.40;99.90
30405;DHT22;62931;53.128;8.224;2022-10-16T17:45:17;12.30;99.90
30405;DHT22;62931;53.128;8.224;2022-10-16T17:47:43;12.30;99.90
30405;DHT22;62931;53.128;8.224;2022-10-16T17:50:08;12.30;99.90
30405;DHT22;62931;53.128;8.224;2022-10-16T17:52:34;12.40;99.90
30405;DHT22;62931;53.128;8.224;2022-10-16T17:55:00;12.50;99.90
30405;DHT22;62931;53.128;8.224;2022-10-16T17:57:25;12.40;99.90
30405;DHT22;62931;53.128;8.224;2022-10-16T17:59:53;12.40;99.90
30405;DHT22;62931;53.128;8.224;2022-10-16T18:02:19;12.40;99.90
30405;DHT22;62931;53.128;8.224;2022-10-16T18:04:45;12.40;99.90
30405;DHT22;62931;53.128;8.224;2022-10-16T18:07:10;12.30;99.90
30405;DHT22;62931;53.128;8.224;2022-10-16T18:09:36;12.30;99.90
30405;DHT22;62931;53.128;8.224;2022-10-16T18:12:02;12.30;99.90
30405;DHT22;62931;53.128;8.224;2022-10-16T18:14:29;12.30;99.90
30405;DHT22;62931;53.128;8.224;2022-10-16T18:16:56;12.30;99.90
30405;DHT22;62931;53.128;8.224;2022-10-16T18:19:23;12.20;99.90
30405;DHT22;62931;53.128;8.224;2022-10-16T18:21:49;12.10;99.90
30405;DHT22;62931;53.128;8.224;2022-10-16T18:24:15;12.00;99.90
30405;DHT22;62931;53.128;8.224;2022-10-16T18:26:41;12.00;99.90
30405;DHT22;62931;53.128;8.224;2022-10-16T18:29:11;12.00;99.90
30405;DHT22;62931;53.128;8.224;2022-10-16T18:31:38;11.90;99.90
30405;DHT22;62931;53.128;8.224;2022-10-16T18:34:04;11.90;99.90
30405;DHT22;62931;53.128;8.224;2022-10-16T18:36:32;11.90;99.90
30405;DHT22;62931;53.128;8.224;2022-10-16T18:38:59;11.90;99.90
30405;DHT22;62931;53.128;8.224;2022-10-16T18:41:26;11.80;99.90
30405;DHT22;62931;53.128;8.224;2022-10-16T18:43:52;11.90;99.90
30405;DHT22;62931;53.128;8.224;2022-10-16T18:46:20;11.90;99.90
30405;DHT22;62931;53.128;8.224;2022-10-16T18:48:47;11.80;99.90
30405;DHT22;62931;53.128;8.224;2022-10-16T18:53:40;11.70;99.90
30405;DHT22;62931;53.128;8.224;2022-10-16T18:56:06;11.70;99.90
30405;DHT22;62931;53.128;8.224;2022-10-16T18:58:36;11.70;99.90
30405;DHT22;62931;53.128;8.224;2022-10-16T19:01:07;11.70;99.90
30405;DHT22;62931;53.128;8.224;2022-10-16T19:03:34;11.70;99.90
30405;DHT22;62931;53.128;8.224;2022-10-16T19:06:02;11.70;99.90
30405;DHT22;62931;53.128;8.224;2022-10-16T19:08:28;11.70;99.90
30405;DHT22;62931;53.128;8.224;2022-10-16T19:11:04;11.70;99.90
30405;DHT22;62931;53.128;8.224;2022-10-16T19:13:30;11.70;99.90
30405;DHT22;62931;53.128;8.224;2022-10-16T19:15:55;11.70;99.90
30405;DHT22;62931;53.128;8.224;2022-10-16T19:18:21;11.70;99.90
30405;DHT22;62931;53.128;8.224;2022-10-16T19:20:47;11.70;99.90
30405;DHT22;62931;53.128;8.224;2022-10-16T19:23:12;11.70;99.90
30405;DHT22;62931;53.128;8.224;2022-10-16T19:25:38;11.70;99.90
30405;DHT22;62931;53.128;8.224;2022-10-16T19:28:05;11.70;99.90
30405;DHT22;62931;53.128;8.224;2022-10-16T19:30:39;11.70;99.90
30405;DHT22;62931;53.128;8.224;2022-10-16T19:33:05;11.60;99.90
30405;DHT22;62931;53.128;8.224;2022-10-16T19:35:32;11.60;99.90
30405;DHT22;62931;53.128;8.224;2022-10-16T19:37:59;11.60;99.90
30405;DHT22;62931;53.128;8.224;2022-10-16T19:40:24;11.50;99.90
30405;DHT22;62931;53.128;8.224;2022-10-16T19:42:50;11.60;99.90
30405;DHT22;62931;53.128;8.224;2022-10-16T19:45:16;11.50;99.90
30405;DHT22;62931;53.128;8.224;2022-10-16T19:47:42;11.50;99.90
30405;DHT22;62931;53.128;8.224;2022-10-16T19:50:10;11.50;99.90
30405;DHT22;62931;53.128;8.224;2022-10-16T19:52:37;11.50;99.90
30405;DHT22;62931;53.128;8.224;2022-10-16T19:55:04;11.50;99.90
30405;DHT22;62931;53.128;8.224;2022-10-16T19:57:33;11.50;99.90
30405;DHT22;62931;53.128;8.224;2022-10-16T19:59:59;11.50;99.90
30405;DHT22;62931;53.128;8.224;2022-10-16T20:02:24;11.50;99.90
30405;DHT22;62931;53.128;8.224;2022-10-16T20:04:50;11.40;99.90
30405;DHT22;62931;53.128;8.224;2022-10-16T20:07:16;11.50;99.90
30405;DHT22;62931;53.128;8.224;2022-10-16T20:09:42;11.50;99.90
30405;DHT22;62931;53.128;8.224;2022-10-16T20:12:08;11.40;99.90
30405;DHT22;62931;53.128;8.224;2022-10-16T20:14:33;11.40;99.90
30405;DHT22;62931;53.128;8.224;2022-10-16T20:16:59;11.40;99.90
30405;DHT22;62931;53.128;8.224;2022-10-16T20:19:26;11.40;99.90
30405;DHT22;62931;53.128;8.224;2022-10-16T20:21:52;11.40;99.90
30405;DHT22;62931;53.128;8.224;2022-10-16T20:24:17;11.50;99.90
30405;DHT22;62931;53.128;8.224;2022-10-16T20:26:43;11.50;99.90
30405;DHT22;62931;53.128;8.224;2022-10-16T20:29:09;11.50;99.90
30405;DHT22;62931;53.128;8.224;2022-10-16T20:31:35;11.60;99.90
30405;DHT22;62931;53.128;8.224;2022-10-16T20:34:05;11.60;99.90
30405;DHT22;62931;53.128;8.224;2022-10-16T20:36:31;11.50;99.90
30405;DHT22;62931;53.128;8.224;2022-10-16T20:38:58;11.50;99.90
30405;DHT22;62931;53.128;8.224;2022-10-16T20:41:24;11.50;99.90
30405;DHT22;62931;53.128;8.224;2022-10-16T20:43:50;11.50;99.90
30405;DHT22;62931;53.128;8.224;2022-10-16T20:46:19;11.50;99.90
30405;DHT22;62931;53.128;8.224;2022-10-16T20:48:45;11.50;99.90
30405;DHT22;62931;53.128;8.224;2022-10-16T20:51:27;11.60;99.90
30405;DHT22;62931;53.128;8.224;2022-10-16T20:54:02;11.50;99.90
30405;DHT22;62931;53.128;8.224;2022-10-16T20:56:30;11.50;99.90
30405;DHT22;62931;53.128;8.224;2022-10-16T20:58:56;11.50;99.90
30405;DHT22;62931;53.128;8.224;2022-10-16T21:01:24;11.50;99.90
30405;DHT22;62931;53.128;8.224;2022-10-16T21:03:55;11.60;99.90
30405;DHT22;62931;53.128;8.224;2022-10-16T21:06:22;11.60;99.90
30405;DHT22;62931;53.128;8.224;2022-10-16T21:08:48;11.60;99.90
30405;DHT22;62931;53.128;8.224;2022-10-16T21:11:19;11.60;99.90
30405;DHT22;62931;53.128;8.224;2022-10-16T21:13:45;11.70;99.90
30405;DHT22;62931;53.128;8.224;2022-10-16T21:16:12;11.70;99.90
30405;DHT22;62931;53.128;8.224;2022-10-16T21:18:38;11.70;99.90
30405;DHT22;62931;53.128;8.224;2022-10-16T21:21:05;11.60;99.90
30405;DHT22;62931;53.128;8.224;2022-10-16T21:23:32;11.60;99.90
30405;DHT22;62931;53.128;8.224;2022-10-16T21:25:58;11.70;99.90
30405;DHT22;62931;53.128;8.224;2022-10-16T21:28:26;11.70;99.90
30405;DHT22;62931;53.128;8.224;2022-10-16T21:30:52;11.70;99.90
30405;DHT22;62931;53.128;8.224;2022-10-16T21:33:17;11.70;99.90
30405;DHT22;62931;53.128;8.224;2022-10-16T21:35:43;11.70;99.90
30405;DHT22;62931;53.128;8.224;2022-10-16T21:38:09;11.70;99.90
30405;DHT22;62931;53.128;8.224;2022-10-16T21:40:34;11.70;99.90
30405;DHT22;62931;53.128;8.224;2022-10-16T21:43:00;11.80;99.90
30405;DHT22;62931;53.128;8.224;2022-10-16T21:45:26;11.80;99.90
30405;DHT22;62931;53.128;8.224;2022-10-16T21:47:51;11.70;99.90
30405;DHT22;62931;53.128;8.224;2022-10-16T21:50:17;11.70;99.90
30405;DHT22;62931;53.128;8.224;2022-10-16T21:52:42;11.70;99.90
30405;DHT22;62931;53.128;8.224;2022-10-16T21:55:08;11.70;99.90
30405;DHT22;62931;53.128;8.224;2022-10-16T21:57:34;11.70;99.90
30405;DHT22;62931;53.128;8.224;2022-10-16T22:00:00;11.80;99.90
30405;DHT22;62931;53.128;8.224;2022-10-16T22:02:26;11.80;99.90
30405;DHT22;62931;53.128;8.224;2022-10-16T22:04:52;11.80;99.90
30405;DHT22;62931;53.128;8.224;2022-10-16T22:07:17;11.80;99.90
30405;DHT22;62931;53.128;8.224;2022-10-16T22:09:43;11.80;99.90
30405;DHT22;62931;53.128;8.224;2022-10-16T22:12:08;11.80;99.90
30405;DHT22;62931;53.128;8.224;2022-10-16T22:14:34;11.70;99.90
30405;DHT22;62931;53.128;8.224;2022-10-16T22:17:00;11.70;99.90
30405;DHT22;62931;53.128;8.224;2022-10-16T22:19:26;11.70;99.90
30405;DHT22;62931;53.128;8.224;2022-10-16T22:21:53;11.70;99.90
30405;DHT22;62931;53.128;8.224;2022-10-16T22:24:22;11.70;99.90
30405;DHT22;62931;53.128;8.224;2022-10-16T22:26:48;11.70;99.90
30405;DHT22;62931;53.128;8.224;2022-10-16T22:29:15;11.70;99.90
30405;DHT22;62931;53.128;8.224;2022-10-16T22:31:41;11.70;99.90
30405;DHT22;62931;53.128;8.224;2022-10-16T22:34:10;11.70;99.90
30405;DHT22;62931;53.128;8.224;2022-10-16T22:36:36;11.70;99.90
30405;DHT22;62931;53.128;8.224;2022-10-16T22:39:03;11.80;99.90
30405;DHT22;62931;53.128;8.224;2022-10-16T22:41:28;11.80;99.90
30405;DHT22;62931;53.128;8.224;2022-10-16T22:43:55;11.80;99.90
30405;DHT22;62931;53.128;8.224;2022-10-16T22:46:29;11.80;99.90
30405;DHT22;62931;53.128;8.224;2022-10-16T22:48:55;11.80;99.90
30405;DHT22;62931;53.128;8.224;2022-10-16T22:51:21;11.80;99.90
30405;DHT22;62931;53.128;8.224;2022-10-16T22:53:48;11.80;99.90
30405;DHT22;62931;53.128;8.224;2022-10-16T22:56:15;11.60;99.90
30405;DHT22;62931;53.128;8.224;2022-10-16T22:58:42;11.60;99.90
